Time;durP1;ratioP1;P1;durP2;ratioP2;P2;SDS_P1;SDS_P2;PMS_P1;PMS_P2;Temp;Humidity;BMP_temperature;BMP_pressure;BME280_temperature;BME280_humidity;BME280_pressure;Samples;Min_cycle;Max_cycle;Signal;HPM_P1;HPM_P2
2023/07/15 00:01:28;;;;;;;5.97;3.72;;;20.50;61.90;;;;;;5057241;28;20040;-70
2023/07/15 00:03:55;;;;;;;8.82;3.92;;;20.50;61.90;;;;;;5057734;28;20044;-70
2023/07/15 00:06:22;;;;;;;6.22;3.40;;;20.50;61.80;;;;;;5056744;28;20147;-70
2023/07/15 00:08:48;;;;;;;6.95;3.38;;;20.50;61.60;;;;;;5056899;28;20033;-70
2023/07/15 00:11:25;;;;;;;6.15;3.15;;;20.50;61.40;;;;;;5057372;28;20059;-70
2023/07/15 00:13:52;;;;;;;8.20;4.20;;;20.50;61.10;;;;;;5057286;28;20044;-70
2023/07/15 00:16:18;;;;;;;5.57;3.45;;;20.50;60.70;;;;;;5040866;28;20090;-70
2023/07/15 00:18:45;;;;;;;5.32;2.65;;;20.60;60.20;;;;;;5057013;28;20040;-70
2023/07/15 00:21:22;;;;;;;5.70;3.45;;;20.60;59.80;;;;;;5040612;28;20045;-69
2023/07/15 00:23:55;;;;;;;6.28;3.05;;;20.60;59.40;;;;;;5057323;28;20032;-70
2023/07/15 00:26:22;;;;;;;5.55;3.05;;;20.60;59.10;;;;;;5040706;28;20037;-70
2023/07/15 00:28:50;;;;;;;6.53;3.40;;;20.70;59.00;;;;;;5056626;28;20098;-70
2023/07/15 00:31:17;;;;;;;5.00;2.95;;;20.70;58.80;;;;;;5057190;28;20048;-70
2023/07/15 00:33:44;;;;;;;5.72;3.40;;;20.80;58.60;;;;;;5056914;28;20052;-70
2023/07/15 00:36:12;;;;;;;7.60;3.17;;;20.80;58.40;;;;;;5056778;28;20047;-70
2023/07/15 00:38:38;;;;;;;4.50;3.05;;;20.80;58.30;;;;;;5057092;28;20427;-69
2023/07/15 00:41:12;;;;;;;4.40;3.10;;;20.90;58.20;;;;;;5056795;28;20084;-70
2023/07/15 00:46:19;;;;;;;4.70;2.53;;;20.90;57.70;;;;;;5056896;28;20041;-70
2023/07/15 00:49:12;;;;;;;5.25;3.03;;;20.90;57.50;;;;;;5056477;28;20369;-70
2023/07/15 00:51:44;;;;;;;6.88;3.08;;;21.00;57.40;;;;;;5056817;28;20039;-70
2023/07/15 00:54:13;;;;;;;6.50;3.47;;;21.00;57.30;;;;;;5056596;28;20463;-69
2023/07/15 00:56:40;;;;;;;5.72;3.13;;;21.00;57.30;;;;;;5055046;28;20052;-69
2023/07/15 00:59:08;;;;;;;7.15;3.17;;;21.00;56.80;;;;;;5056591;28;20044;-70
2023/07/15 01:01:35;;;;;;;8.00;2.95;;;21.00;56.70;;;;;;5056034;28;20048;-70
2023/07/15 01:04:01;;;;;;;5.10;2.63;;;21.00;56.60;;;;;;5055479;28;20578;-70
2023/07/15 01:06:28;;;;;;;6.25;3.00;;;21.00;56.50;;;;;;5039743;28;20041;-70
2023/07/15 01:08:53;;;;;;;7.60;3.10;;;21.00;56.40;;;;;;5039950;28;20067;-70
2023/07/15 01:11:19;;;;;;;5.47;3.13;;;21.00;56.30;;;;;;5056157;28;20048;-70
2023/07/15 01:13:45;;;;;;;5.00;2.70;;;21.00;56.10;;;;;;5055902;28;20037;-70
2023/07/15 01:16:11;;;;;;;4.40;2.67;;;21.10;55.90;;;;;;5056161;28;20047;-70
2023/07/15 01:18:37;;;;;;;8.32;3.22;;;21.10;55.80;;;;;;5055947;28;20041;-70
2023/07/15 01:21:03;;;;;;;6.82;3.00;;;21.10;56.00;;;;;;5056094;28;20040;-70
2023/07/15 01:23:29;;;;;;;5.65;2.95;;;21.10;55.80;;;;;;5056126;28;20052;-70
2023/07/15 01:25:56;;;;;;;4.45;2.83;;;21.10;55.80;;;;;;5055531;28;20033;-70
2023/07/15 01:28:22;;;;;;;7.40;3.17;;;21.10;55.80;;;;;;5055911;28;20044;-70
2023/07/15 01:30:48;;;;;;;7.88;2.63;;;21.10;55.70;;;;;;5055539;28;20492;-70
2023/07/15 01:33:18;;;;;;;3.97;2.70;;;21.10;55.50;;;;;;5038965;28;20110;-70
2023/07/15 01:35:48;;;;;;;5.10;2.67;;;21.20;55.50;;;;;;5055116;28;20044;-70
2023/07/15 01:38:17;;;;;;;7.95;3.05;;;21.20;55.30;;;;;;5055817;28;20139;-70
2023/07/15 01:40:43;;;;;;;3.97;2.80;;;21.20;55.60;;;;;;5055648;28;20097;-70
2023/07/15 01:43:10;;;;;;;6.72;2.70;;;21.10;55.20;;;;;;5055430;28;20040;-70
2023/07/15 01:45:37;;;;;;;5.00;2.38;;;21.20;55.00;;;;;;5055295;28;20072;-70
2023/07/15 01:48:04;;;;;;;3.50;2.35;;;21.20;55.40;;;;;;5038823;28;20071;-70
2023/07/15 01:50:30;;;;;;;3.95;2.22;;;21.20;55.10;;;;;;5039143;28;20377;-70
2023/07/15 01:52:57;;;;;;;4.63;2.70;;;21.20;54.90;;;;;;5038736;28;20048;-70
2023/07/15 01:55:23;;;;;;;4.75;2.38;;;21.20;54.70;;;;;;5047935;28;20052;-70
2023/07/15 01:57:49;;;;;;;5.35;2.80;;;21.20;54.70;;;;;;5055730;28;20545;-70
2023/07/15 02:00:16;;;;;;;4.45;2.42;;;21.20;54.60;;;;;;5055154;28;20097;-70
2023/07/15 02:02:42;;;;;;;4.97;3.00;;;21.20;54.50;;;;;;5073258;28;20048;-70
2023/07/15 02:05:08;;;;;;;3.22;2.38;;;21.20;54.50;;;;;;5051980;28;20037;-70
2023/07/15 02:07:34;;;;;;;6.00;3.30;;;21.20;54.60;;;;;;5046950;28;20105;-70
2023/07/15 02:09:59;;;;;;;3.80;2.40;;;21.20;54.50;;;;;;5054813;28;20043;-70
2023/07/15 02:12:25;;;;;;;5.60;2.78;;;21.20;54.40;;;;;;5055151;28;20076;-70
2023/07/15 02:14:51;;;;;;;5.38;2.38;;;21.20;54.40;;;;;;5038179;28;20404;-70
2023/07/15 02:17:20;;;;;;;4.35;2.40;;;21.10;54.20;;;;;;5038792;28;20040;-70
2023/07/15 02:19:47;;;;;;;5.22;2.22;;;21.10;54.20;;;;;;5055095;28;20112;-70
2023/07/15 02:22:13;;;;;;;5.28;2.35;;;21.20;54.10;;;;;;5055163;28;20040;-70
2023/07/15 02:24:38;;;;;;;5.18;2.50;;;21.10;53.90;;;;;;5037455;28;20555;-70
2023/07/15 02:27:04;;;;;;;5.68;2.70;;;21.20;53.80;;;;;;5054978;28;20076;-70
2023/07/15 02:29:30;;;;;;;4.93;2.63;;;21.20;53.70;;;;;;5054808;28;20462;-70
2023/07/15 02:31:57;;;;;;;5.03;2.90;;;21.20;53.60;;;;;;5054917;28;20036;-70
2023/07/15 02:34:22;;;;;;;5.13;2.42;;;21.20;53.60;;;;;;5054567;28;20059;-70
2023/07/15 02:36:48;;;;;;;4.90;2.60;;;21.20;53.60;;;;;;5037760;28;20037;-70
2023/07/15 02:39:14;;;;;;;4.43;2.60;;;21.20;53.50;;;;;;5054893;28;20040;-70
2023/07/15 02:41:40;;;;;;;5.57;2.95;;;21.20;53.50;;;;;;5054562;28;20048;-70
2023/07/15 02:44:05;;;;;;;4.90;2.28;;;21.20;53.40;;;;;;5054323;28;20126;-70
2023/07/15 02:46:31;;;;;;;5.35;2.65;;;21.20;53.40;;;;;;5037689;28;20391;-70
2023/07/15 02:48:57;;;;;;;4.53;2.30;;;21.20;53.50;;;;;;5054601;28;20055;-71
2023/07/15 02:51:24;;;;;;;3.80;2.47;;;21.20;53.40;;;;;;5054673;28;20045;-70
2023/07/15 02:53:51;;;;;;;3.80;2.28;;;21.10;53.30;;;;;;5054480;28;20048;-70
2023/07/15 02:56:17;;;;;;;4.40;2.40;;;21.10;53.50;;;;;;5053817;28;20052;-70
2023/07/15 02:58:42;;;;;;;4.90;2.10;;;21.10;53.40;;;;;;5054565;28;20040;-70
2023/07/15 03:01:08;;;;;;;4.47;2.15;;;21.10;53.30;;;;;;5054188;28;20123;-70
2023/07/15 03:03:34;;;;;;;4.75;2.28;;;21.10;53.10;;;;;;5037623;28;20032;-70
2023/07/15 03:06:02;;;;;;;5.15;2.58;;;21.10;52.80;;;;;;5053863;28;20121;-70
2023/07/15 03:08:29;;;;;;;5.45;2.25;;;21.10;52.80;;;;;;5038125;28;20487;-70
2023/07/15 03:10:55;;;;;;;6.03;2.33;;;21.10;53.00;;;;;;5054556;28;20043;-70
2023/07/15 03:13:21;;;;;;;6.82;2.47;;;21.10;53.00;;;;;;5054085;28;20052;-70
2023/07/15 03:15:47;;;;;;;3.90;2.08;;;21.10;53.20;;;;;;5053933;28;20044;-70
2023/07/15 03:18:13;;;;;;;5.88;1.92;;;21.10;53.10;;;;;;5054372;28;20044;-70
2023/07/15 03:20:39;;;;;;;5.47;2.58;;;21.10;53.20;;;;;;5055625;28;20036;-70
2023/07/15 03:23:04;;;;;;;5.40;2.25;;;21.10;53.10;;;;;;5058539;28;20052;-70
2023/07/15 03:25:30;;;;;;;6.57;2.55;;;21.10;53.10;;;;;;5041255;28;20087;-70
2023/07/15 03:27:56;;;;;;;5.03;2.30;;;21.10;53.30;;;;;;5058209;28;20049;-70
2023/07/15 03:30:21;;;;;;;4.40;2.25;;;21.00;53.40;;;;;;5058100;28;20048;-70
2023/07/15 03:32:47;;;;;;;4.68;2.30;;;21.00;53.50;;;;;;5057740;28;20150;-70
2023/07/15 03:35:13;;;;;;;4.38;2.13;;;21.00;53.60;;;;;;5057558;28;20044;-70
2023/07/15 03:37:41;;;;;;;5.30;2.30;;;21.00;53.70;;;;;;5058066;28;20082;-70
2023/07/15 03:40:08;;;;;;;7.05;2.88;;;21.00;53.70;;;;;;5058045;28;20128;-70
2023/07/15 03:42:40;;;;;;;4.57;2.33;;;21.00;53.80;;;;;;5041619;28;20450;-70
2023/07/15 03:45:07;;;;;;;7.32;3.10;;;21.00;53.90;;;;;;5038992;28;20043;-70
2023/07/15 03:47:35;;;;;;;4.50;2.53;;;20.90;54.00;;;;;;5058054;28;20040;-70
2023/07/15 03:50:03;;;;;;;3.50;2.40;;;20.90;54.20;;;;;;5057656;28;20557;-70
2023/07/15 03:52:30;;;;;;;3.92;2.22;;;20.90;54.20;;;;;;5057610;28;20044;-70
2023/07/15 03:54:56;;;;;;;4.50;2.50;;;20.80;54.30;;;;;;5057365;28;20048;-70
2023/07/15 03:57:22;;;;;;;4.82;2.05;;;20.80;54.40;;;;;;5057754;28;20094;-70
2023/07/15 03:59:48;;;;;;;3.83;2.13;;;20.80;54.50;;;;;;5057603;28;20044;-70
2023/07/15 04:02:14;;;;;;;6.72;2.40;;;20.80;54.70;;;;;;5057228;28;20389;-70
2023/07/15 04:04:39;;;;;;;4.78;2.20;;;20.80;54.70;;;;;;5040384;28;20036;-70
2023/07/15 04:07:05;;;;;;;4.40;2.85;;;20.70;54.80;;;;;;5057574;28;20051;-70
2023/07/15 04:09:31;;;;;;;4.95;2.15;;;20.70;54.80;;;;;;5057407;28;20075;-70
2023/07/15 04:11:57;;;;;;;4.88;2.20;;;20.70;55.00;;;;;;5057742;28;20032;-70
2023/07/15 04:14:22;;;;;;;3.85;2.20;;;20.70;55.10;;;;;;5056972;28;20466;-70
2023/07/15 04:16:48;;;;;;;5.30;2.60;;;20.60;55.00;;;;;;5057504;28;20090;-70
2023/07/15 04:19:14;;;;;;;5.38;2.83;;;20.60;55.20;;;;;;5040579;28;20438;-70
2023/07/15 04:21:40;;;;;;;6.72;2.42;;;20.60;55.10;;;;;;5057051;28;20102;-70
2023/07/15 04:24:06;;;;;;;4.93;2.80;;;20.60;55.20;;;;;;5040307;28;20040;-70
2023/07/15 04:26:31;;;;;;;5.78;2.28;;;20.60;55.40;;;;;;5057108;28;20037;-70
2023/07/15 04:28:58;;;;;;;3.67;2.40;;;20.60;55.60;;;;;;5057053;28;20045;-70
2023/07/15 04:31:24;;;;;;;5.30;2.55;;;20.60;56.00;;;;;;5056049;28;20044;-70
2023/07/15 04:33:51;;;;;;;5.55;2.40;;;20.60;56.00;;;;;;5057091;28;20044;-70
2023/07/15 04:36:19;;;;;;;4.68;2.90;;;20.60;56.10;;;;;;5040115;28;20076;-70
2023/07/15 04:38:45;;;;;;;6.35;2.58;;;20.60;56.10;;;;;;5057280;28;20387;-70
2023/07/15 04:41:11;;;;;;;5.93;2.38;;;20.50;56.30;;;;;;5056619;28;20040;-70
2023/07/15 04:43:37;;;;;;;4.00;2.50;;;20.50;56.40;;;;;;5056887;28;20043;-70
2023/07/15 04:46:04;;;;;;;4.65;2.60;;;20.50;56.50;;;;;;5056803;28;20060;-70
2023/07/15 04:48:29;;;;;;;4.47;2.47;;;20.50;56.70;;;;;;5056609;28;20506;-70
2023/07/15 04:50:55;;;;;;;4.93;2.33;;;20.50;56.80;;;;;;5023538;28;20033;-70
2023/07/15 04:53:22;;;;;;;3.63;2.40;;;20.50;57.00;;;;;;5056311;28;20042;-70
2023/07/15 04:55:48;;;;;;;3.53;2.60;;;20.50;57.00;;;;;;5056590;28;20032;-70
2023/07/15 04:58:15;;;;;;;5.50;3.00;;;20.50;57.10;;;;;;5056887;28;20145;-70
2023/07/15 05:00:42;;;;;;;3.25;2.30;;;20.50;57.30;;;;;;5056174;28;20045;-70
2023/07/15 05:03:08;;;;;;;6.53;2.75;;;20.50;57.40;;;;;;5056299;28;20048;-70
2023/07/15 05:05:35;;;;;;;6.40;2.70;;;20.50;57.70;;;;;;5039765;28;20044;-70
2023/07/15 05:08:09;;;;;;;5.00;2.90;;;20.40;57.80;;;;;;5056406;28;20129;-70
2023/07/15 05:10:36;;;;;;;4.30;2.55;;;20.50;58.00;;;;;;5056196;28;20044;-70
2023/07/15 05:13:01;;;;;;;4.47;2.70;;;20.50;58.20;;;;;;5056161;28;20124;-70
2023/07/15 05:15:28;;;;;;;7.15;3.17;;;20.50;58.50;;;;;;5056572;28;20128;-70
2023/07/15 05:17:54;;;;;;;4.88;2.60;;;20.60;58.60;;;;;;5039474;28;20471;-70
2023/07/15 05:20:20;;;;;;;6.30;2.58;;;20.70;58.60;;;;;;5056074;28;20053;-70
2023/07/15 05:22:46;;;;;;;4.28;2.47;;;20.90;58.50;;;;;;5056431;28;20044;-70
2023/07/15 05:25:12;;;;;;;4.35;2.72;;;21.10;58.00;;;;;;5055903;28;20036;-70
2023/07/15 05:27:38;;;;;;;5.68;2.88;;;21.40;57.60;;;;;;5055619;28;20060;-70
2023/07/15 05:30:05;;;;;;;6.07;2.90;;;21.70;57.20;;;;;;5055722;28;20042;-71
2023/07/15 05:32:30;;;;;;;7.50;2.70;;;22.00;56.50;;;;;;5055767;28;20040;-70
2023/07/15 05:34:56;;;;;;;5.93;2.55;;;22.40;56.00;;;;;;5055511;28;20044;-70
2023/07/15 05:37:22;;;;;;;5.28;2.60;;;22.70;55.60;;;;;;5055968;28;20047;-70
2023/07/15 05:39:47;;;;;;;6.95;3.13;;;23.20;54.90;;;;;;5055414;28;20044;-70
2023/07/15 05:42:13;;;;;;;5.15;2.70;;;23.60;54.20;;;;;;5039265;28;20036;-70
2023/07/15 05:44:39;;;;;;;6.45;2.13;;;24.00;53.40;;;;;;5054844;28;20036;-70
2023/07/15 05:47:06;;;;;;;3.78;2.20;;;24.40;52.70;;;;;;5055799;28;20120;-70
2023/07/15 05:49:32;;;;;;;6.28;2.42;;;24.80;52.20;;;;;;5055671;28;20044;-70
2023/07/15 05:51:58;;;;;;;5.40;2.63;;;25.20;51.70;;;;;;5038602;28;20040;-70
2023/07/15 05:54:24;;;;;;;5.30;2.72;;;25.60;50.80;;;;;;5038760;28;20040;-70
2023/07/15 05:56:49;;;;;;;3.13;2.00;;;25.90;50.20;;;;;;5055480;28;20416;-70
2023/07/15 05:59:15;;;;;;;7.13;3.15;;;26.00;49.50;;;;;;5055063;28;20075;-70
2023/07/15 06:01:41;;;;;;;5.22;2.35;;;26.10;49.70;;;;;;5054654;28;20082;-70
2023/07/15 06:04:08;;;;;;;4.60;2.30;;;26.10;49.80;;;;;;5055022;28;20036;-70
2023/07/15 06:06:34;;;;;;;3.25;1.83;;;26.00;49.90;;;;;;5055262;28;20040;-70
2023/07/15 06:09:00;;;;;;;3.50;2.20;;;26.00;50.10;;;;;;5055123;28;20383;-70
2023/07/15 06:11:26;;;;;;;4.35;2.17;;;26.00;50.30;;;;;;5048309;28;20044;-70
2023/07/15 06:13:52;;;;;;;4.10;2.50;;;25.90;50.40;;;;;;5055344;28;20067;-70
2023/07/15 06:16:18;;;;;;;2.90;2.00;;;25.80;50.30;;;;;;5038339;28;20044;-70
2023/07/15 06:18:43;;;;;;;4.88;2.25;;;25.80;50.50;;;;;;5055146;28;20039;-70
2023/07/15 06:21:09;;;;;;;4.78;1.95;;;25.80;50.70;;;;;;5054588;28;20480;-70
2023/07/15 06:23:35;;;;;;;5.65;2.58;;;25.80;50.80;;;;;;5055197;28;20030;-70
2023/07/15 06:26:01;;;;;;;4.30;2.30;;;25.90;50.60;;;;;;5054978;28;20472;-70
2023/07/15 06:28:27;;;;;;;4.82;2.40;;;26.00;50.60;;;;;;5037562;28;20067;-70
2023/07/15 06:31:03;;;;;;;4.75;2.20;;;26.10;50.30;;;;;;5054512;28;20048;-70
2023/07/15 06:33:29;;;;;;;4.38;2.15;;;26.20;50.90;;;;;;5054329;28;20598;-70
2023/07/15 06:35:56;;;;;;;5.55;2.17;;;26.30;50.30;;;;;;5038203;28;20170;-70
2023/07/15 06:38:22;;;;;;;4.93;2.50;;;26.50;50.00;;;;;;5054626;28;20079;-70
2023/07/15 06:40:47;;;;;;;5.22;2.35;;;26.70;49.90;;;;;;5054548;28;20445;-70
2023/07/15 06:43:13;;;;;;;3.78;2.28;;;26.80;49.50;;;;;;5054292;28;20036;-70
2023/07/15 06:45:39;;;;;;;5.07;2.80;;;26.80;49.40;;;;;;5054979;28;20033;-71
2023/07/15 06:48:05;;;;;;;7.53;2.58;;;26.90;49.40;;;;;;5037601;28;20040;-70
2023/07/15 06:50:30;;;;;;;4.28;2.03;;;27.00;49.60;;;;;;5054524;28;20040;-70
2023/07/15 06:52:56;;;;;;;4.10;2.38;;;27.10;49.30;;;;;;5037997;28;20036;-70
2023/07/15 06:55:22;;;;;;;6.15;2.20;;;27.20;49.50;;;;;;5038167;28;20131;-71
2023/07/15 06:57:48;;;;;;;6.35;2.25;;;27.30;49.30;;;;;;5054803;28;20046;-70
2023/07/15 07:00:14;;;;;;;5.47;2.33;;;27.50;49.30;;;;;;5021585;28;20102;-71
2023/07/15 07:02:40;;;;;;;4.38;2.25;;;27.70;49.30;;;;;;5037481;28;20051;-70
2023/07/15 07:05:06;;;;;;;3.15;1.70;;;27.80;48.90;;;;;;5037679;28;20033;-70
2023/07/15 07:07:32;;;;;;;4.15;1.88;;;28.00;48.60;;;;;;5037408;28;20072;-70
2023/07/15 07:09:57;;;;;;;5.18;1.90;;;28.10;48.60;;;;;;5037857;28;20086;-70
2023/07/15 07:12:23;;;;;;;4.90;1.90;;;28.30;48.50;;;;;;5053862;28;20049;-70
2023/07/15 07:14:49;;;;;;;3.65;1.60;;;28.50;48.00;;;;;;5054361;28;20054;-69
2023/07/15 07:17:14;;;;;;;6.32;1.88;;;28.60;48.10;;;;;;5054631;28;20037;-70
2023/07/15 07:19:41;;;;;;;4.57;1.73;;;28.80;48.10;;;;;;5053962;28;20048;-70
2023/07/15 07:22:07;;;;;;;4.03;1.65;;;29.00;47.70;;;;;;5053715;28;20040;-70
2023/07/15 07:24:33;;;;;;;2.88;1.67;;;29.30;47.40;;;;;;5037036;28;20110;-70
2023/07/15 07:26:59;;;;;;;4.32;1.67;;;29.50;46.90;;;;;;5020418;28;20056;-69
2023/07/15 07:29:24;;;;;;;4.47;1.80;;;29.70;46.90;;;;;;5049812;28;20056;-70
2023/07/15 07:31:52;;;;;;;2.67;1.55;;;29.90;46.40;;;;;;5037610;28;20060;-70
2023/07/15 07:34:18;;;;;;;4.82;1.77;;;30.10;45.80;;;;;;5054167;28;20048;-70
2023/07/15 07:36:44;;;;;;;6.60;1.50;;;30.10;45.20;;;;;;5054360;28;20396;-72
2023/07/15 07:39:10;;;;;;;3.20;1.90;;;30.20;45.30;;;;;;5053948;28;20044;-72
2023/07/15 07:41:36;;;;;;;3.50;1.40;;;30.20;45.30;;;;;;5049909;28;20044;-72
2023/07/15 07:44:02;;;;;;;4.47;1.63;;;30.10;45.30;;;;;;5053646;28;20523;-72
2023/07/15 07:46:28;;;;;;;3.90;1.75;;;30.10;45.50;;;;;;5037364;28;20042;-72
2023/07/15 07:48:53;;;;;;;2.55;1.52;;;30.00;45.20;;;;;;5053666;28;20043;-72
2023/07/15 07:51:19;;;;;;;2.72;1.30;;;29.90;45.10;;;;;;5036768;28;20128;-71
2023/07/15 07:53:45;;;;;;;2.92;1.25;;;29.90;45.30;;;;;;5053859;28;20063;-72
2023/07/15 07:56:11;;;;;;;3.25;1.85;;;29.80;45.30;;;;;;5037345;28;20452;-72
2023/07/15 07:58:39;;;;;;;7.35;2.30;;;29.80;45.50;;;;;;5037255;28;20122;-72
2023/07/15 08:01:04;;;;;;;4.50;1.42;;;29.80;45.70;;;;;;5053372;28;20036;-71
2023/07/15 08:03:31;;;;;;;2.85;1.58;;;29.80;45.60;;;;;;5053709;28;20044;-72
2023/07/15 08:05:57;;;;;;;3.83;1.30;;;29.80;45.70;;;;;;5037368;28;20033;-72
2023/07/15 08:08:23;;;;;;;2.92;1.23;;;29.80;45.40;;;;;;5040450;28;20041;-72
2023/07/15 08:10:49;;;;;;;2.80;1.67;;;29.80;45.40;;;;;;5040784;28;20044;-72
2023/07/15 08:13:15;;;;;;;3.58;1.48;;;29.80;45.60;;;;;;5035529;28;20049;-72
2023/07/15 08:15:41;;;;;;;2.50;1.40;;;29.80;45.70;;;;;;5057301;28;20047;-72
2023/07/15 08:18:07;;;;;;;3.65;1.30;;;29.80;45.20;;;;;;5057256;28;20047;-72
2023/07/15 08:20:33;;;;;;;2.75;1.48;;;29.80;45.10;;;;;;5056860;28;20145;-72
2023/07/15 08:23:00;;;;;;;2.30;1.10;;;29.80;45.10;;;;;;5040755;28;20047;-72
2023/07/15 08:25:26;;;;;;;1.67;1.10;;;29.90;44.80;;;;;;5056533;28;20456;-72
2023/07/15 08:27:53;;;;;;;3.25;1.50;;;29.90;44.50;;;;;;5056661;28;20052;-72
2023/07/15 08:30:20;;;;;;;2.90;1.20;;;29.90;44.50;;;;;;5056307;28;20052;-72
2023/07/15 08:32:46;;;;;;;2.67;1.30;;;30.00;44.70;;;;;;5056890;28;20483;-72
2023/07/15 08:35:11;;;;;;;2.65;1.60;;;30.00;44.50;;;;;;5056676;28;20058;-72
2023/07/15 08:37:37;;;;;;;4.68;1.45;;;30.10;44.60;;;;;;5056902;28;20510;-71
2023/07/15 08:40:03;;;;;;;6.03;1.67;;;30.20;44.90;;;;;;5056419;28;20123;-72
2023/07/15 08:42:30;;;;;;;3.08;1.55;;;30.40;45.20;;;;;;5039961;28;20395;-72
2023/07/15 08:44:56;;;;;;;1.90;1.20;;;30.50;44.70;;;;;;5056200;28;20044;-72
2023/07/15 08:47:25;;;;;;;2.88;1.08;;;30.70;44.70;;;;;;5056368;28;20040;-72
2023/07/15 08:49:53;;;;;;;2.17;1.23;;;30.80;44.60;;;;;;5056473;28;20068;-72
2023/07/15 08:52:21;;;;;;;4.03;1.55;;;30.90;44.50;;;;;;5056143;28;20119;-72
2023/07/15 08:54:51;;;;;;;1.85;1.42;;;31.00;43.60;;;;;;5056377;28;20036;-72
2023/07/15 08:57:18;;;;;;;2.63;1.58;;;31.10;43.30;;;;;;5056214;28;20522;-71
2023/07/15 08:59:53;;;;;;;4.80;1.45;;;31.10;43.40;;;;;;5039343;28;20032;-72
2023/07/15 09:02:19;;;;;;;1.75;1.23;;;31.10;43.20;;;;;;5055660;28;20036;-72
2023/07/15 09:04:44;;;;;;;4.75;1.35;;;31.20;43.20;;;;;;5055994;28;20028;-72
2023/07/15 09:07:10;;;;;;;2.90;1.23;;;31.20;43.10;;;;;;5056193;28;20396;-73
2023/07/15 09:09:38;;;;;;;1.80;1.40;;;31.10;43.10;;;;;;5039097;28;20541;-72
2023/07/15 09:12:06;;;;;;;3.03;1.52;;;31.10;43.20;;;;;;5034238;28;20073;-72
2023/07/15 09:14:38;;;;;;;3.60;1.90;;;31.10;43.50;;;;;;5038408;28;20468;-72
2023/07/15 09:17:04;;;;;;;3.38;1.67;;;31.20;43.90;;;;;;5039252;28;20045;-73
2023/07/15 09:19:34;;;;;;;3.30;1.65;;;31.30;43.60;;;;;;5055138;28;20039;-72
2023/07/15 09:22:06;;;;;;;2.78;1.88;;;31.40;43.60;;;;;;5056397;28;20036;-72
2023/07/15 09:24:33;;;;;;;2.65;1.50;;;31.40;43.20;;;;;;5055492;28;20067;-72
2023/07/15 09:27:02;;;;;;;2.70;1.95;;;31.40;43.60;;;;;;5055567;28;20068;-72
2023/07/15 09:29:28;;;;;;;3.95;2.05;;;31.40;43.20;;;;;;5055817;28;20045;-72
2023/07/15 09:31:54;;;;;;;2.28;1.33;;;31.40;43.80;;;;;;5048112;28;20384;-72
2023/07/15 09:34:19;;;;;;;4.20;1.70;;;31.40;43.60;;;;;;5039298;28;20036;-72
2023/07/15 09:36:46;;;;;;;4.40;1.65;;;31.40;43.80;;;;;;5055576;28;20181;-72
2023/07/15 09:39:13;;;;;;;5.97;2.10;;;31.40;43.80;;;;;;5055754;28;20097;-72
2023/07/15 09:41:40;;;;;;;4.53;1.63;;;31.50;43.70;;;;;;5055579;28;20122;-72
2023/07/15 09:44:07;;;;;;;3.45;2.22;;;31.50;44.10;;;;;;5035793;28;20039;-72
2023/07/15 09:46:33;;;;;;;2.63;1.70;;;31.60;44.20;;;;;;5038271;28;20028;-72
2023/07/15 09:48:59;;;;;;;4.70;1.70;;;31.70;44.10;;;;;;5038984;28;20040;-72
2023/07/15 09:51:25;;;;;;;3.33;1.80;;;31.80;43.70;;;;;;5038965;28;20045;-72
2023/07/15 09:53:55;;;;;;;3.47;1.80;;;31.90;43.80;;;;;;5073006;28;20044;-72
2023/07/15 09:56:31;;;;;;;2.67;1.77;;;31.90;43.30;;;;;;5038487;28;20040;-71
2023/07/15 09:59:28;;;;;;;3.03;2.00;;;32.00;43.70;;;;;;5055569;28;20380;-72
2023/07/15 10:02:03;;;;;;;3.20;1.95;;;32.10;43.40;;;;;;5051872;28;20060;-72
2023/07/15 10:04:34;;;;;;;3.03;1.75;;;32.00;43.70;;;;;;5036777;28;20040;-72
2023/07/15 10:07:02;;;;;;;3.00;1.95;;;32.00;43.50;;;;;;5055143;28;20069;-72
2023/07/15 10:09:30;;;;;;;3.03;1.63;;;31.90;43.00;;;;;;5038716;28;20040;-72
2023/07/15 10:11:56;;;;;;;3.60;1.80;;;31.90;43.10;;;;;;5054887;28;20047;-72
2023/07/15 10:14:23;;;;;;;3.28;2.17;;;31.80;43.20;;;;;;5055032;28;20028;-72
2023/07/15 10:17:33;;;;;;;2.75;2.03;;;31.80;43.60;;;;;;5055132;28;20365;-72
2023/07/15 10:20:13;;;;;;;3.38;1.90;;;31.70;44.00;;;;;;4994572;28;20268;-72
2023/07/15 10:22:40;;;;;;;4.40;1.80;;;31.60;44.30;;;;;;4994312;28;20070;-72
2023/07/15 10:25:11;;;;;;;3.20;1.90;;;31.60;44.40;;;;;;5031287;28;20055;-72
2023/07/15 10:27:37;;;;;;;4.45;2.15;;;31.60;44.30;;;;;;5054721;28;20056;-72
2023/07/15 10:30:23;;;;;;;4.85;2.35;;;31.50;44.20;;;;;;5054512;28;21789;-72
2023/07/15 10:32:58;;;;;;;2.92;1.75;;;31.50;44.40;;;;;;5045961;28;20403;-72
2023/07/15 10:35:27;;;;;;;2.30;1.60;;;31.50;44.70;;;;;;5054444;28;20048;-72
2023/07/15 10:37:53;;;;;;;2.35;1.48;;;31.50;44.60;;;;;;5054199;28;20051;-67
2023/07/15 10:40:47;;;;;;;3.53;1.60;;;31.50;44.60;;;;;;5054598;28;20174;-72
2023/07/15 10:43:19;;;;;;;5.05;2.28;;;31.40;44.40;;;;;;5037967;28;20040;-74
2023/07/15 10:45:55;;;;;;;3.85;1.92;;;31.40;44.50;;;;;;5054785;28;20108;-77
2023/07/15 10:48:22;;;;;;;1.73;1.40;;;31.30;44.30;;;;;;5053954;28;20036;-76
2023/07/15 10:50:54;;;;;;;3.65;1.50;;;31.20;44.40;;;;;;5054408;28;20040;-76
2023/07/15 10:53:26;;;;;;;3.25;1.80;;;31.10;44.30;;;;;;5054800;28;20387;-77
2023/07/15 10:56:09;;;;;;;4.07;1.70;;;31.10;44.60;;;;;;5038080;28;20053;-76
2023/07/15 10:58:36;;;;;;;1.88;1.52;;;31.00;45.20;;;;;;5054219;28;20041;-76
2023/07/15 11:01:10;;;;;;;3.53;1.75;;;31.00;44.60;;;;;;5053618;28;20041;-77
2023/07/15 11:03:38;;;;;;;2.00;1.35;;;30.90;44.80;;;;;;5047063;28;20183;-74
2023/07/15 11:06:04;;;;;;;4.43;1.80;;;30.80;44.80;;;;;;5054525;28;20376;-77
2023/07/15 11:08:31;;;;;;;4.47;2.10;;;30.80;45.10;;;;;;5054583;28;20037;-77
2023/07/15 11:11:02;;;;;;;4.22;2.08;;;30.70;45.00;;;;;;5054164;28;20043;-77
2023/07/15 11:13:28;;;;;;;2.40;1.67;;;30.60;45.30;;;;;;5054517;28;20124;-77
2023/07/15 11:15:55;;;;;;;2.42;1.65;;;30.60;45.60;;;;;;5037932;28;20041;-78
2023/07/15 11:18:23;;;;;;;3.30;1.42;;;30.60;45.50;;;;;;5052911;28;20399;-78
2023/07/15 11:20:53;;;;;;;3.20;1.38;;;30.60;45.20;;;;;;5044563;28;20120;-78
2023/07/15 11:23:20;;;;;;;3.15;1.48;;;30.50;44.90;;;;;;5038474;28;20065;-73
2023/07/15 11:25:46;;;;;;;2.72;1.30;;;30.50;44.30;;;;;;5033447;28;20120;-71
2023/07/15 11:28:12;;;;;;;4.00;1.50;;;30.40;44.60;;;;;;5034540;28;20060;-76
2023/07/15 11:30:40;;;;;;;1.95;1.10;;;30.20;44.90;;;;;;5039356;28;20071;-75
2023/07/15 11:33:06;;;;;;;4.25;1.40;;;30.20;45.10;;;;;;5022074;28;20040;-75
2023/07/15 11:35:33;;;;;;;3.63;1.80;;;30.00;45.30;;;;;;5037730;28;20049;-74
2023/07/15 11:38:13;;;;;;;2.63;1.40;;;30.00;44.90;;;;;;5038782;28;20055;-74
2023/07/15 11:40:59;;;;;;;2.40;1.40;;;29.90;45.00;;;;;;5035301;28;20053;-73
2023/07/15 11:43:27;;;;;;;2.33;1.42;;;29.80;45.30;;;;;;5042169;28;20507;-74
2023/07/15 11:45:58;;;;;;;4.20;1.65;;;29.60;45.30;;;;;;5039097;28;20041;-74
2023/07/15 11:48:31;;;;;;;2.97;1.30;;;29.60;45.30;;;;;;5039492;28;20515;-74
2023/07/15 11:51:04;;;;;;;3.10;1.20;;;29.50;45.90;;;;;;5024006;28;20033;-75
2023/07/15 11:53:31;;;;;;;3.13;1.30;;;29.30;45.90;;;;;;5048016;28;20095;-75
2023/07/15 11:55:57;;;;;;;4.13;1.27;;;29.20;46.50;;;;;;5040486;28;20037;-75
2023/07/15 11:58:40;;;;;;;2.95;1.33;;;29.10;47.00;;;;;;5023254;28;20106;-74
2023/07/15 12:01:10;;;;;;;2.58;1.23;;;29.10;47.50;;;;;;5036485;28;20110;-74
2023/07/15 12:03:36;;;;;;;2.45;1.10;;;29.10;47.50;;;;;;5034223;28;20542;-75
2023/07/15 12:06:02;;;;;;;6.43;1.40;;;29.10;47.70;;;;;;5034796;28;20049;-73
2023/07/15 12:08:27;;;;;;;6.63;1.73;;;29.00;47.30;;;;;;5036664;28;20107;-73
2023/07/15 12:10:58;;;;;;;4.40;1.52;;;29.00;47.60;;;;;;5036308;28;20045;-70
2023/07/15 12:13:25;;;;;;;2.95;1.23;;;29.00;47.00;;;;;;5036661;28;20073;-70
2023/07/15 12:22:13;;;;;;;5.55;1.58;;;28.70;46.20;;;;;;5964089;22;20057;-69
2023/07/15 12:24:39;;;;;;;2.00;1.25;;;28.70;47.10;;;;;;5010378;23;20046;-68
2023/07/15 12:27:05;;;;;;;2.63;1.40;;;28.70;47.00;;;;;;5006934;28;20045;-67
2023/07/15 12:29:30;;;;;;;3.67;1.60;;;28.70;46.60;;;;;;5007096;28;20040;-67
2023/07/15 12:31:56;;;;;;;3.75;1.35;;;28.80;46.90;;;;;;5006428;28;20045;-68
2023/07/15 12:34:22;;;;;;;2.15;1.20;;;28.80;46.40;;;;;;5000005;28;20038;-67
2023/07/15 12:36:47;;;;;;;2.38;1.25;;;28.90;47.10;;;;;;4998798;28;20038;-68
2023/07/15 12:39:16;;;;;;;3.60;1.38;;;28.90;46.80;;;;;;4999955;28;20034;-67
2023/07/15 12:41:41;;;;;;;5.22;1.50;;;29.00;46.60;;;;;;5005727;28;20057;-67
2023/07/15 12:44:12;;;;;;;5.35;1.70;;;29.10;45.80;;;;;;5002956;28;20038;-67
2023/07/15 12:46:37;;;;;;;3.40;1.67;;;29.10;45.90;;;;;;5002560;28;20124;-67
2023/07/15 12:49:03;;;;;;;4.40;1.50;;;29.10;45.50;;;;;;5004575;28;20480;-67
2023/07/15 12:51:29;;;;;;;3.17;1.48;;;29.10;46.10;;;;;;5000620;28;20129;-66
2023/07/15 12:53:54;;;;;;;6.57;1.92;;;29.10;46.50;;;;;;5000468;28;20042;-67
2023/07/15 12:56:21;;;;;;;2.13;1.48;;;29.00;46.40;;;;;;4999212;28;20096;-67
2023/07/15 12:58:47;;;;;;;2.45;1.40;;;29.00;46.70;;;;;;5003026;28;20493;-67